Time;durP1;ratioP1;P1;durP2;ratioP2;P2;SDS_P1;SDS_P2;PMS_P1;PMS_P2;Temp;Humidity;BMP_temperature;BMP_pressure;BME280_temperature;BME280_humidity;BME280_pressure;Samples;Min_cycle;Max_cycle;Signal;HPM_P1;HPM_P2
2023/05/23 04:00:42;;;;;;;7.87;5.60;;;17.00;97.30;;;;;;6012766;22;21454;-88
2023/05/23 04:03:09;;;;;;;6.47;4.17;;;17.00;97.30;;;;;;4993441;28;20464;-88
2023/05/23 04:05:34;;;;;;;7.37;5.20;;;17.00;97.30;;;;;;5010525;28;20177;-85
2023/05/23 04:08:00;;;;;;;4.77;4.13;;;17.00;97.30;;;;;;4987161;28;20416;-87
2023/05/23 04:10:25;;;;;;;10.40;4.83;;;17.00;97.30;;;;;;4977829;28;20181;-85
2023/05/23 04:12:52;;;;;;;6.83;4.37;;;17.00;97.30;;;;;;4981163;28;20409;-84
2023/05/23 04:15:20;;;;;;;7.83;5.53;;;17.00;97.30;;;;;;4988146;28;20173;-86
2023/05/23 04:17:45;;;;;;;10.47;6.00;;;17.00;97.30;;;;;;4976712;28;20401;-86
2023/05/23 04:20:11;;;;;;;7.83;5.07;;;17.00;97.30;;;;;;4985232;28;20806;-86
2023/05/23 04:22:37;;;;;;;8.70;5.60;;;17.00;97.30;;;;;;4980165;28;20189;-85
2023/05/23 04:25:03;;;;;;;7.30;5.97;;;17.00;97.30;;;;;;4984530;28;20463;-84
2023/05/23 04:27:29;;;;;;;5.23;4.70;;;17.00;97.30;;;;;;4984303;28;20173;-87
2023/05/23 04:29:56;;;;;;;20.83;5.10;;;17.00;97.30;;;;;;4976293;28;20927;-88
2023/05/23 04:32:23;;;;;;;9.27;6.20;;;17.00;97.30;;;;;;4976572;28;20507;-88
2023/05/23 04:34:48;;;;;;;11.67;6.70;;;17.00;97.30;;;;;;4984291;28;20440;-87
2023/05/23 04:37:16;;;;;;;8.17;6.43;;;17.00;97.30;;;;;;4980518;28;20928;-86
2023/05/23 04:39:41;;;;;;;8.23;5.17;;;17.00;97.30;;;;;;4977026;28;20178;-87
2023/05/23 04:42:07;;;;;;;7.57;5.47;;;17.00;97.30;;;;;;4985820;28;20686;-88
2023/05/23 04:44:36;;;;;;;6.47;5.23;;;17.00;97.30;;;;;;4978529;28;20209;-86
2023/05/23 04:47:01;;;;;;;8.63;5.17;;;17.00;97.30;;;;;;4977459;28;20451;-88
2023/05/23 04:49:28;;;;;;;9.03;5.97;;;17.00;97.30;;;;;;5002101;28;20432;-88
2023/05/23 04:51:53;;;;;;;8.17;5.67;;;17.00;97.30;;;;;;4975692;28;20198;-85
2023/05/23 04:54:19;;;;;;;9.77;5.10;;;17.00;97.30;;;;;;4967326;28;20472;-87
2023/05/23 04:56:45;;;;;;;9.50;5.27;;;17.00;97.30;;;;;;4968600;28;20542;-87
2023/05/23 04:59:12;;;;;;;7.60;5.77;;;17.00;97.30;;;;;;4979517;28;20420;-87
2023/05/23 05:01:40;;;;;;;5.57;4.23;;;17.00;97.30;;;;;;4983144;28;20220;-86
2023/05/23 05:04:05;;;;;;;8.57;6.30;;;17.00;97.30;;;;;;4984538;28;20447;-87
2023/05/23 05:06:32;;;;;;;5.17;4.77;;;17.10;97.30;;;;;;4974462;28;20840;-87
2023/05/23 05:08:57;;;;;;;5.77;5.13;;;17.10;97.30;;;;;;4984956;28;20177;-87
2023/05/23 05:11:23;;;;;;;11.60;7.00;;;17.10;97.30;;;;;;4980432;28;20445;-88
2023/05/23 05:13:48;;;;;;;5.63;4.57;;;17.20;97.30;;;;;;4984480;28;20188;-88
2023/05/23 05:16:14;;;;;;;7.37;4.40;;;17.20;97.30;;;;;;4989053;28;20181;-87
2023/05/23 05:18:40;;;;;;;9.20;6.47;;;17.20;97.30;;;;;;4987032;28;20173;-85
2023/05/23 05:21:06;;;;;;;9.30;5.40;;;17.20;97.30;;;;;;4985008;28;20204;-87
2023/05/23 05:23:32;;;;;;;6.50;5.23;;;17.20;97.30;;;;;;5008013;28;20499;-85
2023/05/23 05:25:59;;;;;;;8.83;6.23;;;17.30;97.30;;;;;;4985488;28;20953;-87
2023/05/23 05:28:24;;;;;;;6.83;4.27;;;17.30;97.30;;;;;;4976953;28;20181;-87
2023/05/23 05:30:53;;;;;;;5.50;5.20;;;17.30;97.30;;;;;;4974687;28;20777;-88
2023/05/23 05:33:22;;;;;;;8.23;5.57;;;17.30;97.30;;;;;;4979874;28;20269;-88
2023/05/23 05:35:50;;;;;;;23.40;6.03;;;17.20;97.30;;;;;;4977499;28;20412;-88
2023/05/23 05:38:15;;;;;;;13.63;6.50;;;17.30;97.30;;;;;;4981202;28;20508;-88
2023/05/23 05:40:41;;;;;;;15.07;8.07;;;17.30;97.30;;;;;;4986719;28;20536;-88
2023/05/23 05:43:06;;;;;;;7.73;7.03;;;17.30;97.30;;;;;;5000523;28;20256;-88
2023/05/23 05:45:32;;;;;;;10.60;5.97;;;17.30;97.30;;;;;;4983452;28;20193;-88
2023/05/23 05:47:57;;;;;;;15.23;7.47;;;17.30;97.30;;;;;;4987857;28;20192;-85
2023/05/23 05:50:23;;;;;;;8.57;4.83;;;17.30;97.30;;;;;;4989033;28;20189;-86
2023/05/23 05:52:49;;;;;;;13.30;7.90;;;17.20;97.30;;;;;;4981354;28;20182;-86
2023/05/23 05:55:14;;;;;;;9.87;5.90;;;17.20;97.30;;;;;;4985501;28;20201;-88
2023/05/23 05:57:40;;;;;;;19.63;7.90;;;17.20;97.30;;;;;;4981152;28;20178;-87
2023/05/23 06:00:12;;;;;;;9.40;6.33;;;17.10;97.30;;;;;;4977372;28;20186;-87
2023/05/23 06:02:38;;;;;;;17.83;10.03;;;17.10;97.30;;;;;;4987571;28;20403;-88
2023/05/23 06:05:06;;;;;;;19.50;9.90;;;17.10;97.30;;;;;;4984368;28;20482;-89
2023/05/23 06:07:32;;;;;;;13.93;10.03;;;17.10;97.30;;;;;;4976668;28;20451;-86
2023/05/23 06:10:00;;;;;;;20.70;10.90;;;17.10;97.30;;;;;;4977136;28;20436;-86
2023/05/23 06:12:26;;;;;;;23.27;10.70;;;17.10;97.30;;;;;;4975656;28;20516;-88
2023/05/23 06:14:51;;;;;;;15.83;9.43;;;17.10;97.30;;;;;;4980275;28;20571;-86
2023/05/23 06:17:16;;;;;;;18.10;10.00;;;17.10;97.30;;;;;;4979588;28;20185;-87
2023/05/23 06:19:42;;;;;;;35.57;11.33;;;17.20;97.30;;;;;;4973458;28;20174;-89
2023/05/23 06:22:10;;;;;;;31.53;11.13;;;17.20;97.30;;;;;;4980500;28;20691;-87
2023/05/23 06:24:35;;;;;;;19.23;8.30;;;17.30;97.30;;;;;;4976522;28;20206;-86
2023/05/23 06:27:01;;;;;;;36.03;14.13;;;17.30;97.30;;;;;;4977433;28;20447;-89
2023/05/23 06:29:26;;;;;;;13.23;9.27;;;17.40;97.30;;;;;;4979903;28;20777;-89
2023/05/23 06:31:52;;;;;;;20.67;10.17;;;17.40;97.30;;;;;;4982455;28;20212;-89
2023/05/23 06:34:17;;;;;;;14.97;10.73;;;17.40;97.30;;;;;;4993643;28;20193;-89
2023/05/23 06:36:42;;;;;;;21.90;10.00;;;17.40;97.30;;;;;;4987889;28;20186;-86
2023/05/23 06:39:11;;;;;;;18.13;11.73;;;17.40;97.30;;;;;;4980665;28;20276;-86
2023/05/23 06:41:38;;;;;;;15.07;10.80;;;17.40;97.30;;;;;;4983442;28;20205;-88
2023/05/23 06:44:03;;;;;;;16.83;9.20;;;17.40;97.30;;;;;;4986787;28;20456;-86
2023/05/23 06:46:29;;;;;;;15.60;8.37;;;17.30;97.30;;;;;;4997283;28;20444;-85
2023/05/23 06:48:54;;;;;;;21.63;10.90;;;17.20;97.30;;;;;;4985740;28;20707;-88
2023/05/23 06:51:20;;;;;;;22.63;9.37;;;17.00;97.30;;;;;;4986177;28;20414;-86
2023/05/23 06:53:45;;;;;;;11.40;6.67;;;16.80;97.30;;;;;;4988546;28;20181;-86
2023/05/23 06:56:11;;;;;;;12.30;6.00;;;16.70;97.30;;;;;;4979181;28;20648;-86
2023/05/23 06:58:36;;;;;;;5.97;4.33;;;16.60;97.30;;;;;;4977191;28;20194;-87
2023/05/23 07:01:02;;;;;;;10.43;4.70;;;16.50;97.30;;;;;;4975923;28;20229;-90
2023/05/23 07:03:27;;;;;;;4.40;3.83;;;16.50;97.30;;;;;;4984574;28;20247;-87
2023/05/23 07:05:53;;;;;;;7.83;3.93;;;16.50;97.30;;;;;;5001125;28;20602;-89
2023/05/23 07:08:20;;;;;;;7.63;4.63;;;16.40;97.30;;;;;;4983811;28;20202;-90
2023/05/23 07:10:46;;;;;;;10.67;5.90;;;16.40;97.30;;;;;;4975534;28;20228;-89
2023/05/23 07:13:11;;;;;;;5.17;3.57;;;16.40;97.30;;;;;;4986756;28;20424;-89
2023/05/23 07:15:37;;;;;;;7.20;3.90;;;16.40;97.30;;;;;;4989082;28;20174;-89
2023/05/23 07:18:03;;;;;;;4.60;3.57;;;16.40;97.30;;;;;;4983131;28;20276;-87
2023/05/23 07:20:28;;;;;;;6.90;3.73;;;16.40;97.30;;;;;;4978689;28;20241;-86
2023/05/23 07:22:54;;;;;;;5.17;3.63;;;16.40;97.30;;;;;;4983763;28;20184;-89
2023/05/23 07:25:22;;;;;;;9.90;4.30;;;16.40;97.30;;;;;;4980271;28;20194;-87
2023/05/23 07:27:47;;;;;;;11.53;4.27;;;16.50;97.30;;;;;;4986861;28;20226;-88
2023/05/23 07:30:13;;;;;;;15.10;4.07;;;16.60;97.30;;;;;;5020840;28;20452;-90
2023/05/23 07:32:39;;;;;;;10.97;4.03;;;16.60;97.30;;;;;;5006857;28;20193;-90
2023/05/23 07:35:05;;;;;;;8.30;3.20;;;16.60;97.30;;;;;;5001213;28;20552;-89
2023/05/23 07:37:30;;;;;;;3.20;2.70;;;16.60;97.30;;;;;;4981558;28;20181;-89
2023/05/23 07:39:56;;;;;;;8.10;4.40;;;16.70;97.30;;;;;;4986371;28;20208;-88
2023/05/23 07:42:21;;;;;;;8.40;3.87;;;16.70;97.30;;;;;;5006723;28;20582;-87
2023/05/23 07:44:47;;;;;;;14.90;3.97;;;16.60;97.30;;;;;;5002215;28;20202;-89
2023/05/23 07:47:12;;;;;;;5.47;3.57;;;16.60;97.30;;;;;;4982172;28;20272;-87
2023/05/23 07:49:40;;;;;;;3.20;2.60;;;16.60;97.30;;;;;;4974773;28;20182;-87
2023/05/23 07:52:06;;;;;;;5.20;4.37;;;16.60;97.30;;;;;;4968602;28;20193;-87
2023/05/23 07:54:31;;;;;;;4.30;3.60;;;16.60;97.30;;;;;;4972037;28;20802;-89
2023/05/23 07:56:59;;;;;;;2.33;2.13;;;16.60;97.30;;;;;;4986361;28;20545;-88
2023/05/23 07:59:25;;;;;;;7.57;4.83;;;16.60;97.30;;;;;;4977889;28;20236;-90
2023/05/23 08:01:51;;;;;;;4.50;2.50;;;16.50;97.30;;;;;;4980072;28;20563;-90
2023/05/23 08:04:24;;;;;;;4.27;3.27;;;16.50;97.30;;;;;;4971510;28;20459;-88
2023/05/23 08:06:52;;;;;;;4.70;4.30;;;16.50;97.30;;;;;;4973951;28;20519;-89
2023/05/23 08:09:20;;;;;;;12.77;5.83;;;16.50;97.30;;;;;;4973544;28;20837;-86
2023/05/23 08:11:51;;;;;;;4.13;3.17;;;16.50;97.30;;;;;;4966680;28;20540;-87
2023/05/23 08:14:24;;;;;;;8.90;4.27;;;16.50;97.30;;;;;;4968442;28;20425;-87
2023/05/23 08:16:51;;;;;;;5.43;3.30;;;16.50;97.30;;;;;;4996213;28;20431;-90
2023/05/23 08:19:19;;;;;;;5.60;3.40;;;16.50;97.30;;;;;;4977535;28;20430;-88
2023/05/23 08:21:45;;;;;;;7.33;4.17;;;16.50;97.30;;;;;;4979653;28;20464;-89
2023/05/23 08:24:11;;;;;;;5.33;3.23;;;16.50;97.30;;;;;;4993652;28;20544;-88
2023/05/23 08:26:40;;;;;;;4.27;3.77;;;16.60;97.30;;;;;;4966714;28;20426;-87
2023/05/23 08:29:08;;;;;;;7.10;3.90;;;16.60;97.30;;;;;;4985386;28;20433;-89
2023/05/23 08:31:33;;;;;;;4.03;2.57;;;16.70;97.30;;;;;;4989660;28;20433;-87
2023/05/23 08:34:02;;;;;;;8.33;4.03;;;16.80;97.30;;;;;;4978138;28;20436;-89
2023/05/23 08:36:35;;;;;;;6.47;3.30;;;16.80;97.30;;;;;;4976914;28;20229;-89
2023/05/23 08:39:03;;;;;;;24.63;5.43;;;16.90;97.30;;;;;;4978806;28;20432;-87
2023/05/23 08:41:29;;;;;;;5.23;4.80;;;16.90;97.30;;;;;;5001385;28;20446;-87
2023/05/23 08:43:56;;;;;;;4.77;3.83;;;17.00;97.30;;;;;;4977696;28;20471;-89
2023/05/23 08:46:22;;;;;;;5.17;3.50;;;17.00;97.30;;;;;;4976272;28;20421;-88
2023/05/23 08:48:53;;;;;;;4.73;3.40;;;17.10;97.30;;;;;;4969575;28;20477;-87
2023/05/23 08:51:21;;;;;;;4.80;2.90;;;17.10;97.30;;;;;;4993501;28;20510;-88
2023/05/23 08:53:47;;;;;;;3.23;2.63;;;17.10;97.30;;;;;;5003408;28;20414;-86
2023/05/23 08:56:13;;;;;;;4.30;3.70;;;17.20;97.30;;;;;;4973673;28;20429;-88
2023/05/23 08:58:43;;;;;;;4.17;2.73;;;17.20;97.30;;;;;;4988566;28;20430;-89
2023/05/23 09:01:10;;;;;;;5.33;2.70;;;17.20;97.30;;;;;;4973454;28;20982;-91
2023/05/23 09:03:36;;;;;;;5.90;2.43;;;17.30;97.30;;;;;;4973774;28;20488;-89
2023/05/23 09:06:02;;;;;;;3.23;3.03;;;17.30;97.30;;;;;;4979273;28;20472;-89
2023/05/23 09:08:28;;;;;;;6.50;4.23;;;17.30;97.30;;;;;;4979781;28;20425;-89
2023/05/23 09:10:54;;;;;;;6.57;3.13;;;17.30;97.30;;;;;;4986399;28;20444;-88
2023/05/23 09:13:20;;;;;;;8.23;3.63;;;17.40;97.30;;;;;;5006177;28;20196;-90
2023/05/23 09:15:58;;;;;;;5.90;4.47;;;17.40;97.30;;;;;;4993055;28;21172;-87
2023/05/23 09:18:41;;;;;;;2.40;2.20;;;17.40;97.30;;;;;;4989325;28;20834;-87
2023/05/23 09:21:08;;;;;;;5.17;3.33;;;17.50;97.30;;;;;;4978595;28;20498;-86
2023/05/23 09:23:35;;;;;;;5.23;3.07;;;17.50;97.30;;;;;;4984790;28;20487;-86
2023/05/23 09:26:13;;;;;;;8.63;4.27;;;17.60;97.30;;;;;;4982505;28;20714;-91
2023/05/23 09:28:42;;;;;;;5.10;3.90;;;17.70;97.30;;;;;;4975079;28;20429;-90
2023/05/23 09:31:08;;;;;;;3.83;3.70;;;17.80;97.30;;;;;;4980853;28;20962;-90
2023/05/23 09:33:48;;;;;;;4.20;3.30;;;17.80;97.30;;;;;;4982024;28;20425;-87
2023/05/23 09:36:13;;;;;;;4.63;3.53;;;17.80;97.30;;;;;;4969099;28;20209;-90
2023/05/23 09:38:41;;;;;;;4.30;2.57;;;17.80;97.30;;;;;;4981786;28;20455;-89
2023/05/23 09:41:12;;;;;;;2.93;2.73;;;17.80;97.30;;;;;;4978566;28;20197;-86
2023/05/23 09:43:39;;;;;;;3.80;3.60;;;17.80;97.30;;;;;;5001661;28;20549;-86
2023/05/23 09:46:11;;;;;;;7.50;3.90;;;17.70;97.30;;;;;;4989978;28;20412;-90
2023/05/23 09:48:38;;;;;;;5.23;3.40;;;17.70;97.30;;;;;;4982688;28;20429;-88
2023/05/23 09:51:04;;;;;;;4.40;2.83;;;17.70;97.30;;;;;;4987308;28;20439;-90
2023/05/23 09:53:30;;;;;;;3.13;2.80;;;17.70;97.30;;;;;;4974612;28;20436;-87
2023/05/23 09:55:58;;;;;;;7.07;2.40;;;17.60;97.30;;;;;;4977435;28;20953;-87
2023/05/23 09:58:28;;;;;;;3.63;2.30;;;17.60;97.30;;;;;;4976920;28;20176;-89
2023/05/23 10:00:55;;;;;;;1.83;1.73;;;17.60;97.30;;;;;;4976073;28;21042;-88
2023/05/23 10:03:35;;;;;;;4.50;2.60;;;17.60;97.30;;;;;;4988521;28;20463;-86
2023/05/23 10:06:13;;;;;;;1.40;1.30;;;17.60;97.30;;;;;;4972576;28;20426;-86
2023/05/23 10:08:43;;;;;;;2.73;2.37;;;17.50;97.30;;;;;;4977013;28;20424;-87
2023/05/23 10:11:15;;;;;;;3.27;2.10;;;17.50;97.30;;;;;;4981993;28;20439;-90
2023/05/23 10:13:48;;;;;;;5.03;2.60;;;17.50;97.30;;;;;;4986607;28;20463;-88
2023/05/23 10:16:35;;;;;;;3.83;2.23;;;17.50;97.30;;;;;;5012046;23;20500;-83
2023/05/23 10:19:06;;;;;;;3.37;2.40;;;17.50;97.30;;;;;;4989982;28;20425;-79
2023/05/23 10:21:39;;;;;;;2.47;2.23;;;17.40;97.30;;;;;;4983861;28;20447;-84
2023/05/23 10:24:06;;;;;;;3.43;2.63;;;17.40;97.30;;;;;;4995282;28;20459;-83
2023/05/23 10:26:32;;;;;;;3.30;2.23;;;17.40;97.30;;;;;;5005800;28;20521;-84
2023/05/23 10:28:59;;;;;;;2.43;1.87;;;17.40;97.30;;;;;;4981545;28;21024;-84
2023/05/23 10:31:27;;;;;;;3.30;2.40;;;17.40;97.30;;;;;;4981557;28;20218;-83
2023/05/23 10:34:03;;;;;;;3.87;2.40;;;17.40;97.30;;;;;;4982525;28;21010;-83
2023/05/23 10:37:03;;;;;;;2.30;2.10;;;17.40;97.30;;;;;;4976834;28;20445;-84
2023/05/23 10:39:35;;;;;;;2.67;2.30;;;17.40;97.30;;;;;;4944704;28;20421;-82
2023/05/23 10:42:12;;;;;;;3.43;1.97;;;17.40;97.30;;;;;;4987379;28;20425;-82
2023/05/23 10:44:37;;;;;;;6.27;2.70;;;17.40;97.30;;;;;;4984263;28;20465;-84
2023/05/23 10:47:03;;;;;;;3.07;2.30;;;17.50;97.30;;;;;;4978443;28;21012;-84
2023/05/23 10:49:44;;;;;;;3.13;2.13;;;17.50;97.30;;;;;;4982743;28;20605;-83
2023/05/23 10:52:12;;;;;;;1.80;1.60;;;17.50;97.30;;;;;;4978067;28;20416;-79
2023/05/23 10:54:46;;;;;;;5.23;2.00;;;17.50;97.30;;;;;;4977182;28;20426;-80
2023/05/23 10:57:16;;;;;;;1.83;1.73;;;17.40;97.30;;;;;;4989060;28;20436;-84
2023/05/23 10:59:43;;;;;;;1.40;1.30;;;17.40;97.30;;;;;;4981392;28;20505;-83
2023/05/23 11:02:18;;;;;;;1.83;1.27;;;17.40;97.30;;;;;;4973240;28;20453;-80
2023/05/23 11:04:44;;;;;;;2.90;2.07;;;17.40;97.30;;;;;;4984235;28;20527;-82
2023/05/23 11:07:29;;;;;;;1.80;1.33;;;17.40;97.30;;;;;;4981995;28;20487;-83
2023/05/23 11:10:12;;;;;;;2.60;2.40;;;17.40;97.30;;;;;;4969939;28;20414;-80
2023/05/23 11:12:43;;;;;;;2.13;2.00;;;17.50;97.30;;;;;;4977688;28;20414;-84
2023/05/23 11:15:19;;;;;;;2.00;1.40;;;17.60;97.30;;;;;;4979436;28;20864;-83
2023/05/23 11:17:56;;;;;;;2.53;2.33;;;17.70;97.30;;;;;;4980005;28;20421;-81
2023/05/23 11:20:26;;;;;;;1.67;1.50;;;17.80;97.30;;;;;;4974369;28;20452;-84
2023/05/23 11:22:59;;;;;;;2.17;1.60;;;17.90;97.30;;;;;;4977785;28;20518;-79
2023/05/23 11:25:47;;;;;;;1.43;1.33;;;17.90;97.30;;;;;;4977201;28;20465;-83
2023/05/23 11:28:13;;;;;;;1.40;1.30;;;17.90;97.30;;;;;;4969982;28;20422;-80
2023/05/23 11:30:39;;;;;;;1.73;1.63;;;18.00;97.30;;;;;;4978321;28;20801;-83
2023/05/23 11:33:12;;;;;;;0.83;0.77;;;17.90;97.30;;;;;;4982448;28;20174;-83
2023/05/23 11:35:44;;;;;;;3.23;1.47;;;17.90;97.30;;;;;;4982056;28;20437;-83
2023/05/23 11:38:10;;;;;;;1.00;0.90;;;17.80;97.30;;;;;;4992822;28;20523;-81
2023/05/23 11:40:36;;;;;;;1.63;1.20;;;17.60;97.30;;;;;;4981734;28;20484;-83
2023/05/23 11:43:05;;;;;;;1.57;1.47;;;17.30;97.30;;;;;;4981200;28;20436;-78
2023/05/23 11:45:32;;;;;;;2.27;1.83;;;17.00;97.30;;;;;;4981147;28;20943;-83
2023/05/23 11:47:58;;;;;;;1.20;1.10;;;16.80;97.30;;;;;;4996403;28;20417;-80
2023/05/23 11:50:23;;;;;;;1.10;1.00;;;16.70;97.30;;;;;;4978717;28;20955;-81
2023/05/23 11:52:52;;;;;;;1.17;1.07;;;16.60;97.30;;;;;;4977577;28;20465;-80
2023/05/23 11:55:20;;;;;;;2.37;2.17;;;16.60;97.30;;;;;;4981931;28;20178;-79
2023/05/23 11:57:45;;;;;;;1.87;1.20;;;16.60;97.30;;;;;;4980989;28;20797;-79
2023/05/23 12:00:12;;;;;;;8.73;1.60;;;16.60;97.30;;;;;;4983356;28;20429;-79
2023/05/23 12:02:41;;;;;;;1.63;1.47;;;16.50;97.30;;;;;;4976888;28;20575;-81
2023/05/23 12:05:15;;;;;;;1.77;1.67;;;16.50;97.30;;;;;;4973183;28;20476;-84
2023/05/23 12:07:41;;;;;;;1.10;1.00;;;16.40;97.30;;;;;;4978518;28;20422;-79
2023/05/23 12:10:12;;;;;;;3.30;1.53;;;16.40;97.30;;;;;;4977517;28;20791;-81
2023/05/23 12:12:40;;;;;;;2.50;1.73;;;16.30;97.30;;;;;;4975460;28;20441;-83
2023/05/23 12:15:06;;;;;;;1.73;1.53;;;16.30;97.30;;;;;;4971954;28;20457;-86
2023/05/23 12:17:31;;;;;;;1.87;1.77;;;16.20;97.30;;;;;;4982254;28;20473;-83
2023/05/23 12:19:57;;;;;;;1.40;1.30;;;16.10;97.30;;;;;;4980850;28;20777;-83
2023/05/23 12:22:23;;;;;;;2.40;1.60;;;16.10;97.30;;;;;;4982627;28;20190;-84
2023/05/23 12:24:52;;;;;;;1.93;1.73;;;16.00;97.30;;;;;;4982522;28;20209;-84
2023/05/23 12:27:17;;;;;;;2.83;2.33;;;16.00;97.30;;;;;;4988352;28;20981;-81
2023/05/23 12:29:52;;;;;;;2.30;1.93;;;15.90;97.30;;;;;;4989791;28;20421;-80
2023/05/23 12:32:18;;;;;;;2.40;1.97;;;15.80;97.30;;;;;;4972881;28;20217;-84
2023/05/23 12:34:43;;;;;;;1.33;1.23;;;15.80;97.30;;;;;;4970849;28;21100;-82
2023/05/23 12:37:13;;;;;;;1.47;1.40;;;15.70;97.30;;;;;;4971492;28;20206;-82
2023/05/23 12:39:42;;;;;;;1.73;1.63;;;15.80;97.30;;;;;;4976828;28;20187;-83
2023/05/23 12:42:08;;;;;;;2.17;1.80;;;15.70;97.30;;;;;;4973110;28;20429;-85
2023/05/23 12:44:34;;;;;;;2.13;1.97;;;15.80;97.30;;;;;;4975251;28;20462;-83
2023/05/23 12:46:59;;;;;;;1.47;1.37;;;15.80;97.30;;;;;;4987891;28;20512;-80
2023/05/23 12:49:25;;;;;;;1.30;1.20;;;15.80;97.30;;;;;;4989585;28;20214;-84
2023/05/23 12:51:50;;;;;;;3.67;2.37;;;15.90;97.30;;;;;;4988965;28;20742;-84
2023/05/23 12:54:17;;;;;;;1.60;1.60;;;15.90;97.30;;;;;;4978927;28;20186;-81
2023/05/23 12:56:42;;;;;;;2.07;1.77;;;15.80;97.30;;;;;;4980821;28;20221;-86
2023/05/23 12:59:08;;;;;;;2.20;1.87;;;15.80;97.30;;;;;;4983439;28;20590;-86
2023/05/23 13:01:34;;;;;;;3.43;2.33;;;15.80;97.30;;;;;;4983499;28;20205;-86
2023/05/23 13:04:00;;;;;;;1.90;1.50;;;15.70;97.30;;;;;;4978745;28;20680;-80
2023/05/23 13:06:26;;;;;;;4.90;2.40;;;15.60;97.30;;;;;;4973211;28;20983;-83
2023/05/23 13:08:53;;;;;;;2.20;2.00;;;15.60;97.30;;;;;;4973318;28;20422;-87
2023/05/23 13:11:21;;;;;;;4.47;2.80;;;15.50;97.30;;;;;;4973174;28;20512;-81
2023/05/23 13:13:48;;;;;;;4.03;2.47;;;15.40;97.30;;;;;;4978974;28;20433;-81
2023/05/23 13:16:13;;;;;;;2.40;2.27;;;15.40;97.30;;;;;;4973506;28;20481;-84
2023/05/23 13:18:39;;;;;;;3.90;2.47;;;15.40;97.30;;;;;;4973864;28;20432;-80
2023/05/23 13:21:05;;;;;;;2.73;2.40;;;15.40;97.30;;;;;;4976641;28;20273;-82
2023/05/23 13:23:30;;;;;;;1.70;1.60;;;15.40;97.30;;;;;;4976357;28;20213;-86
2023/05/23 13:25:56;;;;;;;6.70;3.03;;;15.40;97.30;;;;;;4976954;28;20477;-85
2023/05/23 13:28:23;;;;;;;2.20;2.00;;;15.40;97.30;;;;;;4977394;28;20234;-84
2023/05/23 13:30:48;;;;;;;9.00;2.43;;;15.40;97.30;;;;;;4972436;28;20414;-82
2023/05/23 13:33:14;;;;;;;1.57;1.33;;;15.30;97.30;;;;;;4972794;28;20436;-83
2023/05/23 13:35:39;;;;;;;2.33;2.13;;;15.30;97.30;;;;;;4976309;28;20205;-84
2023/05/23 13:38:05;;;;;;;14.93;3.20;;;15.30;97.30;;;;;;4974498;28;20179;-86
2023/05/23 13:40:30;;;;;;;3.20;2.37;;;15.30;97.30;;;;;;4985746;28;20668;-84
2023/05/23 13:42:56;;;;;;;2.40;1.50;;;15.30;97.30;;;;;;4972070;28;20175;-82
2023/05/23 13:45:22;;;;;;;1.73;1.63;;;15.30;97.30;;;;;;4973930;28;20449;-86
2023/05/23 13:47:47;;;;;;;3.40;1.60;;;15.20;97.30;;;;;;4978631;28;20217;-82
2023/05/23 13:50:13;;;;;;;2.93;2.50;;;15.20;97.30;;;;;;4974527;28;20290;-84
2023/05/23 13:52:38;;;;;;;2.27;2.13;;;15.10;97.30;;;;;;4975455;28;20669;-85
2023/05/23 13:55:04;;;;;;;1.70;1.60;;;15.00;97.30;;;;;;4980603;28;20192;-86
2023/05/23 13:57:30;;;;;;;2.63;2.43;;;15.00;97.30;;;;;;4982926;28;20202;-85
2023/05/23 13:59:56;;;;;;;2.67;1.80;;;15.00;97.30;;;;;;4984195;28;20652;-86
2023/05/23 14:02:21;;;;;;;6.10;3.10;;;15.00;97.30;;;;;;4980502;28;20202;-86
2023/05/23 14:04:48;;;;;;;2.50;1.50;;;15.00;97.30;;;;;;4982336;28;20213;-86
2023/05/23 14:07:14;;;;;;;3.30;2.70;;;15.00;97.30;;;;;;4979401;28;20198;-84
2023/05/23 14:09:39;;;;;;;2.23;2.13;;;15.00;97.30;;;;;;4978195;28;20436;-85
2023/05/23 14:12:05;;;;;;;3.37;1.70;;;15.00;97.30;;;;;;4971969;28;20179;-83
2023/05/23 14:14:31;;;;;;;2.00;1.90;;;15.00;97.30;;;;;;4976905;28;20230;-82
2023/05/23 14:16:57;;;;;;;2.20;2.00;;;14.90;97.30;;;;;;4983319;28;20274;-84
2023/05/23 14:19:22;;;;;;;4.23;3.03;;;14.90;97.30;;;;;;4982918;28;20184;-85
2023/05/23 14:21:48;;;;;;;2.30;1.50;;;14.90;97.30;;;;;;4987423;28;20224;-83
2023/05/23 14:24:13;;;;;;;3.53;2.17;;;14.90;97.30;;;;;;4978256;28;20205;-83
2023/05/23 14:26:38;;;;;;;4.37;2.63;;;14.90;97.30;;;;;;4992578;28;20248;-85
2023/05/23 14:29:04;;;;;;;2.97;2.77;;;14.80;97.30;;;;;;4981512;28;20182;-85
2023/05/23 14:31:30;;;;;;;6.47;3.73;;;14.80;97.30;;;;;;4983223;28;20443;-86
2023/05/23 14:33:56;;;;;;;3.63;1.97;;;14.80;97.30;;;;;;4980797;28;20185;-84
2023/05/23 14:36:21;;;;;;;2.67;2.47;;;14.80;97.30;;;;;;4986449;28;20516;-82
2023/05/23 14:38:48;;;;;;;3.03;2.33;;;14.80;97.30;;;;;;4982099;28;20182;-86
2023/05/23 14:41:13;;;;;;;2.53;2.33;;;14.80;97.30;;;;;;4977140;28;20182;-81
2023/05/23 14:43:39;;;;;;;2.50;2.30;;;14.70;97.30;;;;;;4976827;28;20844;-85
2023/05/23 14:46:05;;;;;;;2.23;2.03;;;14.60;97.30;;;;;;5010876;28;20194;-83
2023/05/23 14:48:31;;;;;;;7.60;1.63;;;14.60;97.30;;;;;;4984376;28;20257;-83
2023/05/23 14:51:00;;;;;;;1.93;1.83;;;14.50;97.30;;;;;;4985856;28;20606;-85
2023/05/23 14:53:28;;;;;;;1.60;1.30;;;14.50;97.30;;;;;;4976304;28;20426;-82
2023/05/23 14:55:54;;;;;;;4.70;2.50;;;14.50;97.30;;;;;;4982764;28;20434;-83
2023/05/23 14:58:21;;;;;;;2.20;2.00;;;14.40;97.30;;;;;;4977589;28;20881;-83
2023/05/23 15:00:47;;;;;;;3.10;2.90;;;14.40;97.30;;;;;;4987026;28;20409;-85
2023/05/23 15:03:13;;;;;;;2.70;2.10;;;14.30;97.30;;;;;;4985691;28;20949;-85
2023/05/23 15:05:38;;;;;;;1.20;1.20;;;14.30;97.30;;;;;;4982261;28;20710;-86
2023/05/23 15:08:04;;;;;;;1.40;1.30;;;14.20;97.30;;;;;;4980313;28;20450;-84
2023/05/23 15:10:30;;;;;;;1.73;1.47;;;14.20;97.30;;;;;;4984502;28;20612;-85
2023/05/23 15:12:55;;;;;;;1.50;1.47;;;14.10;97.30;;;;;;4982003;28;20174;-82
2023/05/23 15:15:22;;;;;;;2.40;1.30;;;14.10;97.30;;;;;;4981914;28;20316;-86
2023/05/23 15:17:49;;;;;;;2.50;2.33;;;14.10;97.30;;;;;;4991479;28;20191;-84
2023/05/23 15:20:15;;;;;;;2.83;1.80;;;14.00;97.30;;;;;;4981491;28;20497;-84
2023/05/23 15:22:41;;;;;;;2.60;1.87;;;14.00;97.30;;;;;;4975746;28;20864;-84
2023/05/23 15:25:07;;;;;;;22.63;2.23;;;14.00;97.30;;;;;;4991939;28;20453;-84
2023/05/23 15:27:33;;;;;;;3.50;2.90;;;14.00;97.30;;;;;;4990069;28;20209;-84
2023/05/23 15:29:58;;;;;;;2.30;1.63;;;14.00;97.30;;;;;;4986631;28;20837;-84
2023/05/23 15:32:24;;;;;;;1.67;1.57;;;13.90;97.30;;;;;;4988873;28;20182;-84
2023/05/23 15:34:49;;;;;;;2.17;1.90;;;13.90;97.30;;;;;;4983345;28;20182;-80
2023/05/23 15:37:16;;;;;;;1.53;1.43;;;13.80;97.30;;;;;;4975007;28;20571;-85
2023/05/23 15:39:41;;;;;;;1.80;1.70;;;13.80;97.30;;;;;;4974230;28;20192;-83
2023/05/23 15:42:07;;;;;;;1.37;1.27;;;13.80;97.30;;;;;;4984134;28;20853;-83
2023/05/23 15:44:32;;;;;;;1.70;1.20;;;13.80;97.30;;;;;;4971173;28;20270;-80
2023/05/23 15:46:58;;;;;;;7.90;1.90;;;13.70;97.30;;;;;;4976025;28;20458;-81
2023/05/23 15:49:23;;;;;;;1.83;1.60;;;13.70;97.30;;;;;;4977943;28;20547;-80
2023/05/23 15:51:49;;;;;;;2.80;2.50;;;13.70;97.30;;;;;;4975608;28;20179;-83
2023/05/23 15:54:14;;;;;;;1.50;1.40;;;13.60;97.30;;;;;;4976376;28;20217;-82
2023/05/23 15:56:41;;;;;;;5.90;1.60;;;13.50;97.30;;;;;;4977363;28;20205;-84
2023/05/23 15:59:07;;;;;;;3.83;3.40;;;13.50;97.30;;;;;;4988431;28;20190;-85
2023/05/23 16:01:33;;;;;;;1.30;1.30;;;13.40;97.30;;;;;;4980569;28;20452;-81
2023/05/23 16:03:59;;;;;;;2.47;2.30;;;13.40;97.30;;;;;;4981237;28;20952;-84
2023/05/23 16:06:26;;;;;;;3.43;2.73;;;13.30;97.30;;;;;;4985653;28;20472;-83
2023/05/23 16:08:52;;;;;;;3.00;2.20;;;13.10;97.30;;;;;;5004195;28;20573;-80
2023/05/23 16:11:18;;;;;;;6.97;3.80;;;13.10;97.30;;;;;;4985296;28;20425;-84
2023/05/23 16:13:43;;;;;;;7.23;3.43;;;13.00;97.30;;;;;;4982142;28;20273;-82
2023/05/23 16:16:09;;;;;;;4.37;2.43;;;13.00;97.30;;;;;;5005090;22;20230;-66
2023/05/23 16:18:34;;;;;;;9.63;3.63;;;13.00;97.30;;;;;;4998192;28;20209;-72
2023/05/23 16:21:00;;;;;;;3.23;2.43;;;13.00;97.30;;;;;;4986821;28;20709;-72
2023/05/23 16:23:26;;;;;;;4.30;3.90;;;12.90;97.30;;;;;;4975313;28;20191;-69
2023/05/23 16:25:52;;;;;;;3.20;2.77;;;12.90;97.30;;;;;;4979190;28;20189;-69
2023/05/23 16:28:18;;;;;;;2.23;2.07;;;12.90;97.30;;;;;;4954539;28;20218;-69
2023/05/23 16:30:44;;;;;;;4.37;2.93;;;12.90;97.30;;;;;;4968814;28;20536;-67
2023/05/23 16:33:09;;;;;;;4.80;3.27;;;12.90;97.30;;;;;;4972546;28;20530;-68
2023/05/23 16:35:35;;;;;;;2.77;1.70;;;12.90;97.30;;;;;;4966486;28;20192;-69
2023/05/23 16:38:00;;;;;;;4.80;3.53;;;12.90;97.30;;;;;;4966272;28;20222;-67
2023/05/23 16:40:26;;;;;;;3.27;3.10;;;12.90;97.30;;;;;;4966859;28;20213;-69
2023/05/23 16:42:51;;;;;;;10.50;3.07;;;12.80;97.30;;;;;;4964473;28;20191;-67
2023/05/23 16:45:17;;;;;;;2.80;2.67;;;12.80;97.30;;;;;;4949437;28;20199;-68